Mountain Home, NC (28758)

9:13 PM EST on December 07, 2016 (GMT -0500)
Mountain Home | | Change Station

Elev 2264 ft 35.36 °N, 82.51 °W | Updated 14 seconds ago

Overcast
Overcast
46.4 °F
Feels Like 46 °F
N
0.0
Wind Variable Wind from NW

Today
High -- | Low -- °F
--% Chance of Precip.
Yesterday
High -- | Low -- °F
Precip. -- in
Pressure 30.05 in
Visibility 10.0 miles
Clouds Overcast 1800 ft
Windchill 46 °F
Dew Point 44 °F
Humidity 93%
Rainfall 0.00 in
Snow Depth Not available.
7:26 AM 5:17 PM
First Quarter, 58% visible
METAR KAVL 080154Z 34005KT 10SM OVC018 07/04 A3005 RMK AO2 SLP175 T00720044
Pressure 30.05 in
Visibility 10.0 miles
Clouds Overcast 1800 ft
Windchill 46 °F
Dew Point 44 °F
Humidity 93%
Rainfall 0.00 in
Snow Depth Not available.
7:26 AM 5:17 PM
First Quarter, 58% visible
METAR KAVL 080154Z 34005KT 10SM OVC018 07/04 A3005 RMK AO2 SLP175 T00720044

10-Day Weather Forecast

Almanac

Astronomy

Dec. 07, 2016 Rise Set
Actual Time
Civil Twilight
Nautical Twilight
Astronomical Twilight
Moon
Length of Visible Light
Length of Day
Tomorrow will be .
, % of the Moon is Illuminated

Today's Extremes

State Highs State Lows

Community

WunderPhotos

Upload Photos

1,956,259 photos uploaded!

WunderBlog® & News

Nearby

Air Quality

  Air Quality AQ Index Pollutant
Not available.

Snow Depth

Station Depth Elevation

Earthquake Activity

City Distance Mag. Time & Date
Minimum magnitude displayed is 2.5.

Coastal Water Temperatures

Place Temperature

Stations

Nearby Weather Stations

Station Location Temp. Windchill Dew Point Humidity Wind Precip. Elev Updated Type
                   

Watches & Warnings

There are currently no watches in effect.